Main page
METAR-TAF:

Airports :

Warsaw, Poland

Warsaw Chopin Airport

latitude: 52-10N, longitude: 020-58E, elevation: 106 m

Current weather observation

The report was made 19 minutes ago, at 23:30 UTC
Wind 6 kt from the East/Southeast
Temperature 24°C
Humidity 74%
Pressure 1017 hPa
Visibility 10 km or more
no clouds below 1500 m and no cumulonimbus

METAR: EPWA 242330Z 12006KT CAVOK 24/19 Q1017 NOSIG

Time: 01:49 (23:49 UTC)

Forecast

The report was made 19 minutes ago, at 23:30 UTC
Forecast valid from 25 at 00 UTC to 25 at 24 UTC
Wind 5 kt from the East/Southeast
Visibility 10 km or more
no clouds below 1500 m and no cumulonimbus
Probability 30% :
Temporary
from 25 at 12 UTC to 25 at 18 UTC
Broken clouds at a height of 3000 ft, Cumulonimbus.

TAF: EPWA 242330Z 2500/2524 12005KT CAVOK PROB30 TEMPO 2512/2518 BKN030CB

METAR-TAF

Weather observations and forecasts of more than 4000 airports (METAR and TAF reports).

The available stations are represented by yellow and red dots on the map.

Hover mouse over dot to see the name of the station.

Then click to see weather observations and forecasts.

To change the map : click on the green buttons with a black cross to zoom in, on the green button with a dash to zoom out, or on the green arrows for adjacent maps.


METAR-TAF: